Accueil
METAR-TAF:

METAR-TAF

Aéroports :

Base aérienne 113 Saint-Dizier-Robinson

Saint-Dizier, France

latitude: 48-38N, longitude: 004-54E, altitude: 139 m

Observation

Le bulletin a été fait il y a 42 minutes, à 21:00 UTC
Vent calme
Température 0°C
Humidité 74%
Pression 1020 hPa
Visibilité 10 km ou plus
pas de nuages en-dessous de 1500 mètres et pas de cumulonimbus.

METAR: LFSI 082100Z AUTO 00000KT CAVOK 00/M04 Q1020

Heure: 22:42 (21:42 UTC)

Prévision

Le bulletin a été fait il y a 1 heure et 42 minutes, à 20:00 UTC
Prévision valable du 08 à 21 UTC au 09 à 21 UTC
Vent 4 kt de est
Visibilité 10 km ou plus
pas de nuages en-dessous de 1500 mètres et pas de cumulonimbus.
Evoluant progressivement
du 09 à 18 UTC au 09 à 21 UTC
Nuages fragmentés à une hauteur de 1200 ft

TAF: LFSI 082000Z 0821/0921 08004KT CAVOK BECMG 0918/0921 BKN012

Observations et prévisions météorologiques de plus de 4000 aéroports (messages METAR et TAF).

Les stations disponibles sont représentées par des disques jaunes et rouges sur la carte.

Passer la souris dessus pour voir le nom de la station.

Cliquer dessus pour voir les observations et prévisions météorologiques.

Pour changer de carte: cliquez sur les boutons verts avec une croix noire pour zoomer, sur le bouton vert avec un tiret pour effectuer un zoom arrière, ou sur les flèches vertes pour les cartes adjacentes.


METAR-TAF: